createdAt,value
2023-12-03T00:00:57.874Z,95019.00
2023-12-03T00:01:57.903Z,95021.00
2023-12-03T00:02:57.831Z,95021.00
2023-12-03T00:03:57.998Z,95023.00
2023-12-03T00:04:57.830Z,95026.00
2023-12-03T00:05:57.930Z,95027.00
2023-12-03T00:06:58.042Z,95028.00
2023-12-03T00:07:57.846Z,95030.00
2023-12-03T00:08:57.849Z,95031.00
2023-12-03T00:09:57.846Z,95031.00
2023-12-03T00:10:57.839Z,95031.00
2023-12-03T00:11:57.836Z,95032.00
2023-12-03T00:12:57.859Z,95031.00
2023-12-03T00:13:57.893Z,95033.00
2023-12-03T00:14:57.925Z,95036.00
2023-12-03T00:15:57.964Z,95039.00
2023-12-03T00:16:58.036Z,95039.00
2023-12-03T00:17:58.098Z,95044.00
2023-12-03T00:18:58.171Z,95045.00
2023-12-03T00:19:58.022Z,95047.00
2023-12-03T00:20:58.042Z,95049.00
2023-12-03T00:21:58.080Z,95052.00
2023-12-03T00:22:58.107Z,95057.00
2023-12-03T00:23:58.143Z,95059.00
2023-12-03T00:24:58.142Z,95061.00
2023-12-03T00:25:58.229Z,95064.00
2023-12-03T00:26:58.197Z,95063.00
2023-12-03T00:27:58.231Z,95069.00
2023-12-03T00:28:58.241Z,95068.00
2023-12-03T00:29:58.269Z,95072.00
2023-12-03T00:30:58.290Z,95071.00
2023-12-03T00:31:58.321Z,95076.00
2023-12-03T00:32:58.440Z,95076.00
2023-12-03T00:33:58.496Z,95079.00
2023-12-03T00:34:58.389Z,95079.00
2023-12-03T00:35:58.456Z,95083.00
2023-12-03T00:36:58.485Z,95083.00
2023-12-03T00:37:58.525Z,95084.00
2023-12-03T00:38:58.526Z,95088.00
2023-12-03T00:39:58.564Z,95092.00
2023-12-03T00:40:58.560Z,95093.00
2023-12-03T00:41:58.707Z,95094.00
2023-12-03T00:42:58.717Z,95096.00
2023-12-03T00:43:58.692Z,95098.00
2023-12-03T00:44:58.686Z,95099.00
2023-12-03T00:45:58.794Z,95101.00
2023-12-03T00:46:58.730Z,95102.00
2023-12-03T00:47:58.795Z,95103.00
2023-12-03T00:48:58.848Z,95103.00
2023-12-03T00:49:58.841Z,95103.00
2023-12-03T00:50:58.833Z,95103.00
2023-12-03T00:51:58.862Z,95109.00
2023-12-03T00:52:58.892Z,95107.00
2023-12-03T00:53:58.914Z,95110.00
2023-12-03T00:54:58.941Z,95111.00
2023-12-03T00:55:58.944Z,95114.00
2023-12-03T00:56:58.961Z,95114.00
2023-12-03T00:57:58.977Z,95120.00
2023-12-03T00:58:59.014Z,95121.00
2023-12-03T00:59:59.017Z,95123.00
2023-12-03T01:00:59.083Z,95123.00
2023-12-03T01:01:59.086Z,95128.00
2023-12-03T01:02:59.101Z,95127.00
2023-12-03T01:03:59.178Z,95129.00
2023-12-03T01:04:59.224Z,95130.00
2023-12-03T01:05:59.160Z,95132.00
2023-12-03T01:06:59.205Z,95131.00
2023-12-03T01:07:59.229Z,95130.00
2023-12-03T01:08:59.263Z,95132.00
2023-12-03T01:09:59.288Z,95129.00
2023-12-03T01:10:59.303Z,95129.00
2023-12-03T01:11:59.317Z,95130.00
2023-12-03T01:12:59.433Z,95133.00
2023-12-03T01:13:59.368Z,95130.00
2023-12-03T01:14:59.411Z,95131.00
2023-12-03T01:15:59.450Z,95131.00
2023-12-03T01:16:59.480Z,95133.00
2023-12-03T01:17:59.516Z,95133.00
2023-12-03T01:18:59.635Z,95134.00
2023-12-03T01:19:59.550Z,95136.00
2023-12-03T01:20:59.598Z,95136.00
2023-12-03T01:21:59.635Z,95138.00
2023-12-03T01:22:59.634Z,95138.00
2023-12-03T01:23:59.682Z,95138.00
2023-12-03T01:24:59.738Z,95139.00
2023-12-03T01:25:59.767Z,95138.00
2023-12-03T01:26:59.742Z,95140.00
2023-12-03T01:27:59.799Z,95139.00
2023-12-03T01:28:59.844Z,95141.00
2023-12-03T01:29:59.815Z,95143.00
2023-12-03T01:30:59.899Z,95144.00
2023-12-03T01:31:59.910Z,95147.00
2023-12-03T01:32:59.962Z,95147.00
2023-12-03T01:33:59.975Z,95146.00
2023-12-03T01:34:59.983Z,95149.00
2023-12-03T01:36:00.048Z,95150.00
2023-12-03T01:37:00.020Z,95152.00
2023-12-03T01:38:00.045Z,95153.00
2023-12-03T01:39:00.136Z,95155.00
2023-12-03T01:40:00.127Z,95157.00
2023-12-03T01:41:00.190Z,95161.00
2023-12-03T01:42:00.214Z,95160.00
2023-12-03T01:43:00.224Z,95164.00
2023-12-03T01:44:00.252Z,95167.00
2023-12-03T01:45:00.263Z,95171.00
2023-12-03T01:46:00.330Z,95171.00
2023-12-03T01:47:00.342Z,95177.00
2023-12-03T01:48:00.464Z,95178.00
2023-12-03T01:49:00.520Z,95181.00
2023-12-03T01:50:00.414Z,95183.00
2023-12-03T01:51:00.534Z,95182.00
2023-12-03T01:52:00.523Z,95186.00
2023-12-03T01:53:00.568Z,95186.00
2023-12-03T01:54:00.512Z,95187.00
2023-12-03T01:55:00.581Z,95189.00
2023-12-03T01:56:00.598Z,95188.00
2023-12-03T01:57:00.665Z,95190.00
2023-12-03T01:58:00.663Z,95192.00
2023-12-03T01:59:00.790Z,95191.00
2023-12-03T02:00:00.682Z,95194.00
2023-12-03T02:01:00.938Z,95193.00
2023-12-03T02:02:00.843Z,95192.00
2023-12-03T02:03:00.744Z,95194.00
2023-12-03T02:04:00.862Z,95193.00
2023-12-03T02:05:00.956Z,95195.00
2023-12-03T02:06:00.957Z,95194.00
2023-12-03T02:07:00.942Z,95199.00
2023-12-03T02:08:00.920Z,95201.00
2023-12-03T02:09:00.955Z,95200.00
2023-12-03T02:10:00.966Z,95200.00
2023-12-03T02:11:01.024Z,95202.00
2023-12-03T02:12:01.047Z,95203.00
2023-12-03T02:13:01.077Z,95203.00
2023-12-03T02:14:01.090Z,95206.00
2023-12-03T02:15:01.130Z,95205.00
2023-12-03T02:16:01.186Z,95207.00
2023-12-03T02:17:01.197Z,95206.00
2023-12-03T02:18:01.227Z,95209.00
2023-12-03T02:19:01.332Z,95210.00
2023-12-03T02:20:01.277Z,95212.00
2023-12-03T02:21:01.289Z,95214.00
2023-12-03T02:22:01.329Z,95216.00
2023-12-03T02:23:01.411Z,95219.00
2023-12-03T02:24:01.389Z,95218.00
2023-12-03T02:25:01.386Z,95218.00
2023-12-03T02:26:01.405Z,95219.00
2023-12-03T02:27:01.497Z,95219.00
2023-12-03T02:28:01.467Z,95220.00
2023-12-03T02:29:01.490Z,95220.00
2023-12-03T02:30:01.510Z,95223.00
2023-12-03T02:31:01.525Z,95222.00
2023-12-03T02:32:01.562Z,95223.00
2023-12-03T02:33:01.620Z,95227.00
2023-12-03T02:34:01.751Z,95231.00
2023-12-03T02:35:01.663Z,95229.00
2023-12-03T02:36:01.686Z,95231.00
2023-12-03T02:37:01.732Z,95234.00
2023-12-03T02:38:01.763Z,95234.00
2023-12-03T02:39:01.799Z,95236.00
2023-12-03T02:40:01.839Z,95235.00
2023-12-03T02:41:01.837Z,95237.00
2023-12-03T02:42:01.888Z,95235.00
2023-12-03T02:43:01.986Z,95235.00
2023-12-03T02:44:01.927Z,95235.00
2023-12-03T02:45:01.990Z,95239.00
2023-12-03T02:46:02.032Z,95239.00
2023-12-03T02:47:02.052Z,95239.00
2023-12-03T02:48:02.230Z,95241.00
2023-12-03T02:49:02.237Z,95240.00
2023-12-03T02:50:02.119Z,95243.00
2023-12-03T02:51:02.204Z,95242.00
2023-12-03T02:52:02.217Z,95243.00
2023-12-03T02:53:02.256Z,95243.00
2023-12-03T02:54:02.340Z,95240.00
2023-12-03T02:55:02.354Z,95243.00
2023-12-03T02:56:02.374Z,95240.00
2023-12-03T02:57:02.387Z,95240.00
2023-12-03T02:58:02.438Z,95240.00
2023-12-03T02:59:02.500Z,95241.00
2023-12-03T03:00:02.511Z,95241.00
2023-12-03T03:01:02.557Z,95240.00
2023-12-03T03:02:02.630Z,95241.00
2023-12-03T03:03:02.633Z,95241.00
2023-12-03T03:04:02.794Z,95238.00
2023-12-03T03:05:02.689Z,95240.00
2023-12-03T03:06:02.811Z,95241.00
2023-12-03T03:07:02.775Z,95242.00
2023-12-03T03:08:02.805Z,95243.00
2023-12-03T03:09:02.836Z,95244.00
2023-12-03T03:10:02.889Z,95243.00
2023-12-03T03:11:02.951Z,95244.00
2023-12-03T03:12:02.969Z,95246.00
2023-12-03T03:13:03.009Z,95244.00
2023-12-03T03:14:03.011Z,95245.00
2023-12-03T03:15:03.083Z,95247.00
2023-12-03T03:16:03.101Z,95247.00
2023-12-03T03:17:03.146Z,95249.00
2023-12-03T03:18:03.226Z,95251.00
2023-12-03T03:19:03.389Z,95251.00
2023-12-03T03:20:03.247Z,95254.00
2023-12-03T03:21:03.305Z,95255.00
2023-12-03T03:22:03.353Z,95257.00
2023-12-03T03:23:03.391Z,95259.00
2023-12-03T03:24:03.390Z,95262.00
2023-12-03T03:25:03.429Z,95263.00
2023-12-03T03:26:03.478Z,95266.00
2023-12-03T03:27:04.394Z,95267.00
2023-12-03T03:28:03.558Z,95268.00
2023-12-03T03:29:03.601Z,95271.00
2023-12-03T03:30:03.640Z,95269.00
2023-12-03T03:31:03.717Z,95270.00
2023-12-03T03:32:03.753Z,95271.00
2023-12-03T03:33:03.828Z,95275.00
2023-12-03T03:34:03.914Z,95277.00
2023-12-03T03:35:03.854Z,95280.00
2023-12-03T03:36:03.918Z,95286.00
2023-12-03T03:37:03.927Z,95289.00
2023-12-03T03:38:03.928Z,95291.00
2023-12-03T03:39:03.976Z,95291.00
2023-12-03T03:40:04.021Z,95293.00
2023-12-03T03:41:04.067Z,95297.00
2023-12-03T03:42:04.102Z,95296.00
2023-12-03T03:43:04.132Z,95299.00
2023-12-03T03:44:04.175Z,95300.00
2023-12-03T03:45:04.193Z,95302.00
2023-12-03T03:46:04.261Z,95305.00
2023-12-03T03:47:04.261Z,95306.00
2023-12-03T03:48:04.340Z,95310.00
2023-12-03T03:49:04.473Z,95310.00
2023-12-03T03:50:04.393Z,95313.00
2023-12-03T03:51:04.447Z,95312.00
2023-12-03T03:52:04.439Z,95311.00
2023-12-03T03:53:04.482Z,95313.00
2023-12-03T03:54:04.575Z,95316.00
2023-12-03T03:55:04.599Z,95319.00
2023-12-03T03:56:04.622Z,95319.00
2023-12-03T03:57:04.675Z,95316.00
2023-12-03T03:58:04.682Z,95316.00
2023-12-03T03:59:04.788Z,95319.00
2023-12-03T04:00:04.757Z,95319.00
2023-12-03T04:01:04.823Z,95318.00
2023-12-03T04:02:04.891Z,95322.00
2023-12-03T04:03:04.879Z,95321.00
2023-12-03T04:04:05.027Z,95321.00
2023-12-03T04:05:05.003Z,95321.00
2023-12-03T04:06:05.262Z,95320.00
2023-12-03T04:07:05.109Z,95322.00
2023-12-03T04:08:05.102Z,95323.00
2023-12-03T04:09:05.136Z,95324.00
2023-12-03T04:10:05.151Z,95324.00
2023-12-03T04:11:05.230Z,95325.00
2023-12-03T04:12:05.213Z,95326.00
2023-12-03T04:13:05.310Z,95325.00
2023-12-03T04:14:05.380Z,95327.00
2023-12-03T04:15:05.340Z,95326.00
2023-12-03T04:16:05.378Z,95326.00
2023-12-03T04:17:05.439Z,95327.00
2023-12-03T04:18:05.503Z,95327.00
2023-12-03T04:19:05.500Z,95327.00
2023-12-03T04:20:05.606Z,95330.00
2023-12-03T04:21:05.577Z,95331.00
2023-12-03T04:22:05.610Z,95332.00
2023-12-03T04:23:05.642Z,95332.00
2023-12-03T04:24:05.713Z,95336.00
2023-12-03T04:25:05.718Z,95336.00
2023-12-03T04:26:05.809Z,95336.00
2023-12-03T04:27:05.826Z,95338.00
2023-12-03T04:28:05.859Z,95337.00
2023-12-03T04:29:05.893Z,95338.00
2023-12-03T04:30:05.977Z,95335.00
2023-12-03T04:31:05.997Z,95333.00
2023-12-03T04:32:06.054Z,95334.00
2023-12-03T04:33:06.182Z,95330.00
2023-12-03T04:34:06.168Z,95332.00
2023-12-03T04:35:06.175Z,95331.00
2023-12-03T04:36:06.413Z,95331.00
2023-12-03T04:37:06.252Z,95331.00
2023-12-03T04:38:06.287Z,95333.00
2023-12-03T04:39:06.558Z,95333.00
2023-12-03T04:40:06.345Z,95333.00
2023-12-03T04:41:06.391Z,95331.00
2023-12-03T04:42:06.411Z,95331.00
2023-12-03T04:43:13.771Z,95333.00
2023-12-03T04:44:13.747Z,95332.00
2023-12-03T04:45:13.758Z,95332.00
2023-12-03T04:46:13.785Z,95334.00
2023-12-03T04:47:13.725Z,95335.00
2023-12-03T04:48:13.780Z,95334.00
2023-12-03T04:49:13.825Z,95336.00
2023-12-03T04:50:13.762Z,95335.00
2023-12-03T04:51:13.815Z,95337.00
2023-12-03T04:52:13.765Z,95337.00
2023-12-03T04:55:13.791Z,95343.00
2023-12-03T04:56:13.821Z,95348.00
2023-12-03T04:57:13.796Z,95351.00
2023-12-03T04:58:13.778Z,95352.00
2023-12-03T04:59:13.737Z,95356.00
2023-12-03T05:00:13.765Z,95356.00
2023-12-03T05:02:13.801Z,95356.00
2023-12-03T05:03:13.807Z,95356.00
2023-12-03T05:04:13.818Z,95356.00
2023-12-03T05:05:13.796Z,95357.00
2023-12-03T05:06:13.918Z,95359.00
2023-12-03T05:07:13.870Z,95358.00
2023-12-03T05:08:13.765Z,95362.00
2023-12-03T05:09:13.818Z,95364.00
2023-12-03T05:10:13.798Z,95366.00
2023-12-03T05:11:13.803Z,95368.00
2023-12-03T05:12:13.816Z,95365.00
2023-12-03T05:13:13.798Z,95367.00
2023-12-03T05:14:13.844Z,95370.00
2023-12-03T05:15:13.935Z,95373.00
2023-12-03T05:16:13.937Z,95374.00
2023-12-03T05:17:13.965Z,95379.00
2023-12-03T05:18:14.144Z,95379.00
2023-12-03T05:19:14.157Z,95379.00
2023-12-03T05:20:14.137Z,95380.00
2023-12-03T05:21:14.216Z,95382.00
2023-12-03T05:22:14.236Z,95381.00
2023-12-03T05:23:14.248Z,95384.00
2023-12-03T05:24:14.300Z,95388.00
2023-12-03T05:25:14.320Z,95390.00
2023-12-03T05:26:14.377Z,95390.00
2023-12-03T05:27:14.407Z,95392.00
2023-12-03T05:28:15.953Z,95393.00
2023-12-03T05:29:14.461Z,95394.00
2023-12-03T05:30:14.548Z,95397.00
2023-12-03T05:31:14.556Z,95400.00
2023-12-03T05:32:14.613Z,95400.00
2023-12-03T05:33:14.975Z,95401.00
2023-12-03T05:34:14.925Z,95404.00
2023-12-03T05:35:14.723Z,95404.00
2023-12-03T05:36:14.792Z,95405.00
2023-12-03T05:37:14.854Z,95407.00
2023-12-03T05:38:14.870Z,95407.00
2023-12-03T05:39:14.939Z,95409.00
2023-12-03T05:40:14.978Z,95409.00
2023-12-03T05:41:15.026Z,95409.00
2023-12-03T05:42:15.152Z,95410.00
2023-12-03T05:43:15.135Z,95411.00
2023-12-03T05:44:15.175Z,95409.00
2023-12-03T05:45:15.233Z,95410.00
2023-12-03T05:46:15.266Z,95414.00
2023-12-03T05:47:15.315Z,95415.00
2023-12-03T05:48:15.520Z,95415.00
2023-12-03T05:49:15.567Z,95416.00
2023-12-03T05:50:15.744Z,95415.00
2023-12-03T05:51:15.585Z,95417.00
2023-12-03T05:52:15.567Z,95419.00
2023-12-03T05:53:15.620Z,95418.00
2023-12-03T05:54:15.693Z,95421.00
2023-12-03T05:55:15.690Z,95423.00
2023-12-03T05:56:15.755Z,95422.00
2023-12-03T05:57:15.840Z,95425.00
2023-12-03T05:58:15.862Z,95427.00
2023-12-03T05:59:15.912Z,95426.00
2023-12-03T06:00:16.025Z,95427.00
2023-12-03T06:01:16.010Z,95428.00
2023-12-03T06:02:16.077Z,95425.00
2023-12-03T06:03:16.126Z,95427.00
2023-12-03T06:04:16.180Z,95428.00
2023-12-03T06:05:16.232Z,95428.00
2023-12-03T06:06:16.384Z,95431.00
2023-12-03T06:07:16.403Z,95431.00
2023-12-03T06:08:16.365Z,95433.00
2023-12-03T06:09:16.466Z,95433.00
2023-12-03T06:10:16.476Z,95435.00
2023-12-03T06:11:16.488Z,95436.00
2023-12-03T06:12:16.581Z,95438.00
2023-12-03T06:13:16.587Z,95437.00
2023-12-03T06:14:16.685Z,95443.00
2023-12-03T06:15:16.758Z,95444.00
2023-12-03T06:16:19.191Z,95446.00
2023-12-03T06:17:16.773Z,95448.00
2023-12-03T06:18:16.897Z,95450.00
2023-12-03T06:19:16.843Z,95452.00
2023-12-03T06:20:16.784Z,95453.00
2023-12-03T06:21:16.777Z,95454.00
2023-12-03T06:22:16.812Z,95457.00
2023-12-03T06:23:19.052Z,95460.00
2023-12-03T06:24:16.830Z,95459.00
2023-12-03T06:25:16.859Z,95457.00
2023-12-03T06:26:16.938Z,95458.00
2023-12-03T06:27:17.026Z,95461.00
2023-12-03T06:28:17.046Z,95461.00
2023-12-03T06:29:17.044Z,95461.00
2023-12-03T06:30:17.172Z,95463.00
2023-12-03T06:31:17.176Z,95465.00
2023-12-03T06:32:17.215Z,95465.00
2023-12-03T06:33:19.653Z,95467.00
2023-12-03T06:34:17.368Z,95470.00
2023-12-03T06:35:17.264Z,95468.00
2023-12-03T06:36:17.301Z,95471.00
2023-12-03T06:37:17.276Z,95472.00
2023-12-03T06:38:17.279Z,95474.00
2023-12-03T06:39:17.300Z,95476.00
2023-12-03T06:40:17.334Z,95476.00
2023-12-03T06:41:17.275Z,95476.00
2023-12-03T06:42:17.342Z,95476.00
2023-12-03T06:43:17.281Z,95478.00
2023-12-03T06:44:27.499Z,95477.00
2023-12-03T06:45:18.317Z,95477.00
2023-12-03T06:46:17.283Z,95479.00
2023-12-03T06:47:17.310Z,95480.00
2023-12-03T06:48:17.386Z,95481.00
2023-12-03T06:49:17.356Z,95483.00
2023-12-03T06:50:17.303Z,95485.00
2023-12-03T06:51:17.311Z,95485.00
2023-12-03T06:52:17.267Z,95488.00
2023-12-03T06:53:17.311Z,95489.00
2023-12-03T06:54:17.390Z,95490.00
2023-12-03T06:55:17.407Z,95496.00
2023-12-03T06:56:17.406Z,95496.00
2023-12-03T06:57:17.484Z,95500.00
2023-12-03T06:58:17.526Z,95504.00
2023-12-03T06:59:17.571Z,95506.00
2023-12-03T07:00:17.657Z,95508.00
2023-12-03T07:01:17.673Z,95508.00
2023-12-03T07:02:17.768Z,95513.00
2023-12-03T07:03:17.819Z,95513.00
2023-12-03T07:04:17.873Z,95514.00
2023-12-03T07:05:17.904Z,95515.00
2023-12-03T07:06:18.131Z,95517.00
2023-12-03T07:07:18.062Z,95516.00
2023-12-03T07:08:18.111Z,95515.00
2023-12-03T07:09:37.050Z,95519.00
2023-12-03T07:10:19.152Z,95521.00
2023-12-03T07:11:18.128Z,95520.00
2023-12-03T07:12:18.178Z,95521.00
2023-12-03T07:13:18.148Z,95520.00
2023-12-03T07:14:18.138Z,95518.00
2023-12-03T07:15:18.183Z,95521.00
2023-12-03T07:16:18.158Z,95523.00
2023-12-03T07:17:18.169Z,95524.00
2023-12-03T07:18:18.161Z,95528.00
2023-12-03T07:19:18.183Z,95530.00
2023-12-03T07:20:18.201Z,95531.00
2023-12-03T07:21:20.010Z,95536.00
2023-12-03T07:22:18.295Z,95535.00
2023-12-03T07:23:18.296Z,95536.00
2023-12-03T07:24:18.442Z,95538.00
2023-12-03T07:25:18.276Z,95538.00
2023-12-03T07:26:18.262Z,95537.00
2023-12-03T07:27:20.472Z,95540.00
2023-12-03T07:28:18.415Z,95539.00
2023-12-03T07:29:18.445Z,95538.00
2023-12-03T07:30:18.529Z,95540.00
2023-12-03T07:31:18.530Z,95539.00
2023-12-03T07:32:18.593Z,95541.00
2023-12-03T07:33:18.780Z,95541.00
2023-12-03T07:34:18.780Z,95542.00
2023-12-03T07:35:18.779Z,95543.00
2023-12-03T07:36:18.912Z,95545.00
2023-12-03T07:37:18.882Z,95545.00
2023-12-03T07:38:18.909Z,95547.00
2023-12-03T07:39:19.188Z,95547.00
2023-12-03T07:40:19.016Z,95550.00
2023-12-03T07:41:19.068Z,95552.00
2023-12-03T07:42:19.138Z,95552.00
2023-12-03T07:43:19.226Z,95550.00
2023-12-03T07:44:19.238Z,95553.00
2023-12-03T07:45:21.642Z,95553.00
2023-12-03T07:46:19.240Z,95554.00
2023-12-03T07:47:19.280Z,95554.00
2023-12-03T07:48:19.390Z,95559.00
2023-12-03T07:49:19.352Z,95560.00
2023-12-03T07:50:19.246Z,95560.00
2023-12-03T07:51:19.319Z,95559.00
2023-12-03T07:52:19.275Z,95560.00
2023-12-03T07:53:19.286Z,95561.00
2023-12-03T07:54:19.279Z,95561.00
2023-12-03T07:55:19.300Z,95560.00
2023-12-03T07:56:19.290Z,95562.00
2023-12-03T07:57:19.353Z,95559.00
2023-12-03T07:58:19.281Z,95562.00
2023-12-03T07:59:19.303Z,95564.00
2023-12-03T08:00:19.305Z,95564.00
2023-12-03T08:01:19.363Z,95564.00
2023-12-03T08:02:19.338Z,95564.00
2023-12-03T08:03:19.325Z,95562.00
2023-12-03T08:04:19.401Z,95562.00
2023-12-03T08:05:19.383Z,95561.00
2023-12-03T08:06:19.365Z,95563.00
2023-12-03T08:07:19.406Z,95564.00
2023-12-03T08:08:19.325Z,95564.00
2023-12-03T08:09:19.342Z,95563.00
2023-12-03T08:10:19.315Z,95564.00
2023-12-03T08:11:19.316Z,95566.00
2023-12-03T08:12:19.354Z,95569.00
2023-12-03T08:13:19.304Z,95567.00
2023-12-03T08:14:19.318Z,95572.00
2023-12-03T08:15:19.354Z,95575.00
2023-12-03T08:16:19.346Z,95576.00
2023-12-03T08:17:19.342Z,95581.00
2023-12-03T08:18:19.402Z,95579.00
2023-12-03T08:19:19.434Z,95580.00
2023-12-03T08:20:19.326Z,95580.00
2023-12-03T08:21:19.402Z,95580.00
2023-12-03T08:22:19.362Z,95579.00
2023-12-03T08:23:19.332Z,95579.00
2023-12-03T08:24:19.412Z,95580.00
2023-12-03T08:25:19.349Z,95581.00
2023-12-03T08:26:19.365Z,95583.00
2023-12-03T08:27:19.386Z,95582.00
2023-12-03T08:28:19.357Z,95582.00
2023-12-03T08:29:19.367Z,95585.00
2023-12-03T08:30:19.384Z,95585.00
2023-12-03T08:31:19.340Z,95586.00
2023-12-03T08:32:19.384Z,95585.00
2023-12-03T08:33:19.436Z,95586.00
2023-12-03T08:34:19.426Z,95586.00
2023-12-03T08:35:19.383Z,95589.00
2023-12-03T08:36:19.627Z,95588.00
2023-12-03T08:37:19.404Z,95589.00
2023-12-03T08:38:19.475Z,95592.00
2023-12-03T08:39:19.637Z,95591.00
2023-12-03T08:40:19.555Z,95592.00
2023-12-03T08:41:19.573Z,95594.00
2023-12-03T08:42:19.552Z,95595.00
2023-12-03T08:43:19.597Z,95594.00
2023-12-03T08:44:20.564Z,95593.00
2023-12-03T08:45:19.606Z,95590.00
2023-12-03T08:46:19.554Z,95591.00
2023-12-03T08:47:19.585Z,95593.00
2023-12-03T08:48:19.594Z,95594.00
2023-12-03T08:49:19.608Z,95597.00
2023-12-03T08:50:19.573Z,95597.00
2023-12-03T08:51:19.553Z,95596.00
2023-12-03T08:52:19.588Z,95599.00
2023-12-03T08:53:19.669Z,95600.00
2023-12-03T08:54:19.755Z,95602.00
2023-12-03T08:55:19.786Z,95601.00
2023-12-03T08:56:19.836Z,95602.00
2023-12-03T08:57:19.945Z,95603.00
2023-12-03T08:58:19.959Z,95601.00
2023-12-03T08:59:20.015Z,95603.00
2023-12-03T09:00:20.121Z,95603.00
2023-12-03T09:01:20.171Z,95605.00
2023-12-03T09:02:20.216Z,95607.00
2023-12-03T09:03:20.364Z,95607.00
2023-12-03T09:04:20.326Z,95605.00
2023-12-03T09:05:20.409Z,95607.00
2023-12-03T09:06:20.538Z,95605.00
2023-12-03T09:07:20.478Z,95606.00
2023-12-03T09:08:20.532Z,95607.00
2023-12-03T09:09:20.669Z,95607.00
2023-12-03T09:10:20.679Z,95608.00
2023-12-03T09:11:20.701Z,95607.00
2023-12-03T09:12:20.795Z,95607.00
2023-12-03T09:13:20.783Z,95607.00
2023-12-03T09:14:20.847Z,95606.00
2023-12-03T09:15:20.943Z,95609.00
2023-12-03T09:16:20.953Z,95607.00
2023-12-03T09:17:20.980Z,95606.00
2023-12-03T09:18:21.069Z,95605.00
2023-12-03T09:19:21.220Z,95605.00
2023-12-03T09:20:21.116Z,95607.00
2023-12-03T09:21:21.284Z,95606.00
2023-12-03T09:22:21.224Z,95606.00
2023-12-03T09:23:21.245Z,95605.00
2023-12-03T09:24:21.298Z,95602.00
2023-12-03T09:25:21.363Z,95604.00
2023-12-03T09:26:21.393Z,95602.00
2023-12-03T09:27:21.497Z,95603.00
2023-12-03T09:28:21.533Z,95605.00
2023-12-03T09:29:21.539Z,95601.00
2023-12-03T09:30:21.658Z,95602.00
2023-12-03T09:31:21.671Z,95605.00
2023-12-03T09:32:21.699Z,95605.00
2023-12-03T09:33:21.860Z,95608.00
2023-12-03T09:34:21.831Z,95610.00
2023-12-03T09:35:21.871Z,95613.00
2023-12-03T09:36:22.034Z,95614.00
2023-12-03T09:37:21.955Z,95614.00
2023-12-03T09:38:21.996Z,95615.00
2023-12-03T09:39:22.089Z,95618.00
2023-12-03T09:40:22.097Z,95617.00
2023-12-03T09:41:22.143Z,95618.00
2023-12-03T09:42:22.238Z,95618.00
2023-12-03T09:43:22.228Z,95618.00
2023-12-03T09:44:22.227Z,95618.00
2023-12-03T09:45:22.259Z,95615.00
2023-12-03T09:46:22.333Z,95615.00
2023-12-03T09:47:22.264Z,95613.00
2023-12-03T09:48:22.402Z,95615.00
2023-12-03T09:49:22.354Z,95616.00
2023-12-03T09:50:22.304Z,95617.00
2023-12-03T09:51:22.339Z,95616.00
2023-12-03T09:52:22.323Z,95615.00
2023-12-03T09:53:22.369Z,95614.00
2023-12-03T09:54:22.411Z,95616.00
2023-12-03T09:55:22.377Z,95615.00
2023-12-03T09:56:22.404Z,95616.00
2023-12-03T09:57:22.480Z,95615.00
2023-12-03T09:58:22.454Z,95612.00
2023-12-03T09:59:22.431Z,95609.00
2023-12-03T10:00:22.473Z,95609.00
2023-12-03T10:01:22.512Z,95606.00
2023-12-03T10:02:22.585Z,95605.00
2023-12-03T10:03:22.599Z,95604.00
2023-12-03T10:04:22.559Z,95603.00
2023-12-03T10:05:22.648Z,95602.00
2023-12-03T10:06:22.610Z,95600.00
2023-12-03T10:07:22.573Z,95600.00
2023-12-03T10:08:22.635Z,95600.00
2023-12-03T10:09:22.710Z,95599.00
2023-12-03T10:10:22.896Z,95598.00
2023-12-03T10:11:22.740Z,95594.00
2023-12-03T10:12:23.988Z,95592.00
2023-12-03T10:13:22.754Z,95593.00
2023-12-03T10:14:22.762Z,95591.00
2023-12-03T10:15:22.840Z,95592.00
2023-12-03T10:16:22.755Z,95592.00
2023-12-03T10:17:22.770Z,95592.00
2023-12-03T10:18:22.917Z,95594.00
2023-12-03T10:19:22.895Z,95592.00
2023-12-03T10:20:22.925Z,95594.00
2023-12-03T10:21:22.862Z,95593.00
2023-12-03T10:22:22.838Z,95593.00
2023-12-03T10:23:22.833Z,95591.00
2023-12-03T10:24:22.879Z,95593.00
2023-12-03T10:25:22.844Z,95593.00
2023-12-03T10:26:22.855Z,95596.00
2023-12-03T10:27:22.946Z,95596.00
2023-12-03T10:28:22.868Z,95589.00
2023-12-03T10:29:22.870Z,95590.00
2023-12-03T10:30:22.895Z,95588.00
2023-12-03T10:31:22.857Z,95587.00
2023-12-03T10:32:22.894Z,95590.00
2023-12-03T10:33:22.929Z,95589.00
2023-12-03T10:34:23.017Z,95588.00
2023-12-03T10:35:22.980Z,95589.00
2023-12-03T10:36:22.925Z,95590.00
2023-12-03T10:37:22.896Z,95584.00
2023-12-03T10:38:22.910Z,95584.00
2023-12-03T10:39:22.966Z,95582.00
2023-12-03T10:40:22.945Z,95583.00
2023-12-03T10:41:22.921Z,95581.00
2023-12-03T10:42:23.001Z,95579.00
2023-12-03T10:43:22.951Z,95577.00
2023-12-03T10:44:22.986Z,95574.00
2023-12-03T10:45:23.058Z,95572.00
2023-12-03T10:46:22.966Z,95572.00
2023-12-03T10:47:22.974Z,95572.00
2023-12-03T10:48:23.025Z,95574.00
2023-12-03T10:49:23.157Z,95572.00
2023-12-03T10:50:23.032Z,95577.00
2023-12-03T10:51:23.040Z,95574.00
2023-12-03T10:52:23.004Z,95574.00
2023-12-03T10:53:23.041Z,95572.00
2023-12-03T10:54:23.133Z,95572.00
2023-12-03T10:55:25.147Z,95571.00
2023-12-03T10:56:23.101Z,95571.00
2023-12-03T10:57:23.130Z,95571.00
2023-12-03T10:58:23.178Z,95570.00
2023-12-03T10:59:23.167Z,95570.00
2023-12-03T11:00:23.261Z,95569.00
2023-12-03T11:01:23.200Z,95568.00
2023-12-03T11:02:23.216Z,95569.00
2023-12-03T11:03:23.387Z,95572.00
2023-12-03T11:04:23.413Z,95567.00
2023-12-03T11:05:23.467Z,95566.00
2023-12-03T11:06:23.445Z,95566.00
2023-12-03T11:07:23.398Z,95564.00
2023-12-03T11:08:23.419Z,95565.00
2023-12-03T11:09:23.551Z,95565.00
2023-12-03T11:10:23.550Z,95563.00
2023-12-03T11:11:23.548Z,95562.00
2023-12-03T11:12:23.667Z,95562.00
2023-12-03T11:13:29.422Z,95561.00
2023-12-03T11:14:24.659Z,95560.00
2023-12-03T11:15:23.702Z,95560.00
2023-12-03T11:16:23.641Z,95558.00
2023-12-03T11:17:23.679Z,95558.00
2023-12-03T11:18:23.783Z,95554.00
2023-12-03T11:19:23.792Z,95551.00
2023-12-03T11:20:23.746Z,95547.00
2023-12-03T11:21:23.662Z,95546.00
2023-12-03T11:22:23.690Z,95542.00
2023-12-03T11:23:23.726Z,95542.00
2023-12-03T11:24:23.767Z,95538.00
2023-12-03T11:25:23.809Z,95535.00
2023-12-03T11:26:23.890Z,95534.00
2023-12-03T11:27:24.049Z,95531.00
2023-12-03T11:28:24.047Z,95532.00
2023-12-03T11:29:24.111Z,95528.00
2023-12-03T11:30:24.246Z,95528.00
2023-12-03T11:31:24.227Z,95530.00
2023-12-03T11:32:30.230Z,95529.00
2023-12-03T11:33:25.396Z,95526.00
2023-12-03T11:34:24.482Z,95524.00
2023-12-03T11:35:24.326Z,95525.00
2023-12-03T11:36:24.396Z,95525.00
2023-12-03T11:37:24.347Z,95525.00
2023-12-03T11:38:24.314Z,95524.00
2023-12-03T11:39:24.339Z,95522.00
2023-12-03T11:40:24.348Z,95523.00
2023-12-03T11:41:24.396Z,95520.00
2023-12-03T11:42:24.430Z,95523.00
2023-12-03T11:43:24.520Z,95521.00
2023-12-03T11:44:24.598Z,95521.00
2023-12-03T11:45:24.941Z,95522.00
2023-12-03T11:46:24.683Z,95524.00
2023-12-03T11:47:24.752Z,95524.00
2023-12-03T11:48:25.154Z,95525.00